Time;durP1;ratioP1;P1;durP2;ratioP2;P2;SDS_P1;SDS_P2;PMS_P1;PMS_P2;Temp;Humidity;BMP_temperature;BMP_pressure;BME280_temperature;BME280_humidity;BME280_pressure;Samples;Min_cycle;Max_cycle;Signal;HPM_P1;HPM_P2
2021/09/24 00:01:15;;;;;;;8.52;6.03;;;;;;;;;;5013698;28;20049;-46
2021/09/24 00:03:42;;;;;;;6.72;5.70;;;;;;;;;;5013551;28;20388;-47
2021/09/24 00:06:09;;;;;;;7.05;5.72;;;;;;;;;;5013787;28;20088;-46
2021/09/24 00:08:36;;;;;;;8.38;6.30;;;;;;;;;;5012265;28;20376;-45
2021/09/24 00:11:03;;;;;;;9.48;6.50;;;;;;;;;;5014001;28;20068;-47
2021/09/24 00:13:30;;;;;;;9.43;6.82;;;;;;;;;;5013213;28;20041;-47
2021/09/24 00:15:57;;;;;;;8.27;6.25;;;;;;;;;;5013788;28;20042;-45
2021/09/24 00:18:24;;;;;;;8.00;5.97;;;;;;;;;;5030447;28;20044;-48
2021/09/24 00:20:51;;;;;;;8.60;6.43;;;;;;;;;;5033184;28;20049;-46
2021/09/24 00:23:17;;;;;;;8.18;6.55;;;;;;;;;;5032899;28;20039;-45
2021/09/24 00:25:44;;;;;;;10.32;6.68;;;;;;;;;;5023950;28;20545;-46
2021/09/24 00:28:11;;;;;;;8.52;6.60;;;;;;;;;;5013129;28;20450;-45
2021/09/24 00:30:38;;;;;;;8.93;6.68;;;;;;;;;;5028587;28;20053;-46
2021/09/24 00:33:05;;;;;;;8.23;5.90;;;;;;;;;;5013091;28;20045;-48
2021/09/24 00:35:32;;;;;;;10.45;6.88;;;;;;;;;;5013095;28;20038;-47
2021/09/24 00:37:59;;;;;;;8.93;6.63;;;;;;;;;;5012733;28;20046;-47
2021/09/24 00:40:26;;;;;;;9.65;6.90;;;;;;;;;;5013203;28;20092;-44
2021/09/24 00:42:56;;;;;;;11.50;7.38;;;;;;;;;;5013374;28;20042;-44
2021/09/24 00:45:23;;;;;;;9.68;7.13;;;;;;;;;;5013145;28;20427;-46
2021/09/24 00:47:51;;;;;;;12.43;7.07;;;;;;;;;;5012759;28;20050;-44
2021/09/24 00:50:18;;;;;;;10.18;7.20;;;;;;;;;;5012939;28;20121;-46
2021/09/24 00:52:48;;;;;;;9.57;6.55;;;;;;;;;;5012965;28;20515;-45
2021/09/24 00:55:15;;;;;;;9.98;7.20;;;;;;;;;;5012314;28;20568;-46
2021/09/24 00:57:42;;;;;;;9.80;7.47;;;;;;;;;;5012627;28;20096;-48
2021/09/24 01:00:09;;;;;;;10.13;7.38;;;;;;;;;;5012888;28;20053;-45
2021/09/24 01:02:36;;;;;;;13.23;8.15;;;;;;;;;;5012787;28;20423;-44
2021/09/24 01:05:04;;;;;;;9.35;7.25;;;;;;;;;;5012391;28;20092;-46
2021/09/24 01:07:31;;;;;;;9.80;7.07;;;;;;;;;;5011463;28;20459;-46
2021/09/24 01:09:58;;;;;;;9.85;7.20;;;;;;;;;;5012613;28;20058;-47
2021/09/24 01:12:25;;;;;;;8.52;6.68;;;;;;;;;;5012564;28;20508;-44
2021/09/24 01:15:04;;;;;;;9.18;7.18;;;;;;;;;;5012421;28;20046;-46
2021/09/24 01:17:31;;;;;;;10.25;6.53;;;;;;;;;;5022697;28;20038;-45
2021/09/24 01:19:58;;;;;;;11.32;7.80;;;;;;;;;;5032763;28;20076;-46
2021/09/24 01:22:25;;;;;;;9.07;7.38;;;;;;;;;;5032940;28;20041;-45
2021/09/24 01:24:52;;;;;;;9.85;6.40;;;;;;;;;;5030045;28;20038;-45
2021/09/24 01:27:19;;;;;;;10.30;6.38;;;;;;;;;;5012954;28;20069;-46
2021/09/24 01:29:49;;;;;;;10.02;7.55;;;;;;;;;;5012638;28;20330;-48
2021/09/24 01:32:16;;;;;;;9.43;6.85;;;;;;;;;;5013339;28;20061;-46
2021/09/24 01:34:43;;;;;;;9.70;7.18;;;;;;;;;;5012533;28;20045;-45
2021/09/24 01:37:10;;;;;;;10.30;7.55;;;;;;;;;;5012411;28;20048;-44
2021/09/24 01:39:37;;;;;;;9.82;7.57;;;;;;;;;;5032047;28;20414;-47
2021/09/24 01:42:04;;;;;;;9.48;7.30;;;;;;;;;;5032328;28;20557;-47
2021/09/24 01:44:30;;;;;;;10.60;7.47;;;;;;;;;;5031973;28;20042;-43
2021/09/24 01:46:57;;;;;;;10.23;6.90;;;;;;;;;;5021984;28;20396;-44
2021/09/24 01:49:24;;;;;;;9.93;7.25;;;;;;;;;;5011934;28;20450;-45
2021/09/24 01:51:51;;;;;;;10.55;7.72;;;;;;;;;;5011812;28;20117;-43
2021/09/24 01:54:19;;;;;;;9.63;7.05;;;;;;;;;;5011543;28;20041;-47
2021/09/24 01:56:46;;;;;;;9.50;7.90;;;;;;;;;;5037200;22;20041;-45
2021/09/24 01:59:13;;;;;;;10.70;7.72;;;;;;;;;;5031590;28;20038;-44
2021/09/24 02:01:40;;;;;;;11.98;8.00;;;;;;;;;;5031667;28;20042;-47
2021/09/24 02:04:10;;;;;;;11.93;7.80;;;;;;;;;;5030856;28;20041;-46
2021/09/24 02:06:37;;;;;;;12.35;8.00;;;;;;;;;;5031599;28;20037;-46
2021/09/24 02:09:04;;;;;;;9.95;7.47;;;;;;;;;;5030305;28;20068;-44
2021/09/24 02:11:30;;;;;;;12.27;7.95;;;;;;;;;;5031531;28;20072;-45
2021/09/24 02:13:57;;;;;;;10.65;7.95;;;;;;;;;;5029672;28;20136;-45
2021/09/24 02:16:24;;;;;;;9.63;7.60;;;;;;;;;;5031803;28;20057;-47
2021/09/24 02:18:51;;;;;;;10.90;7.85;;;;;;;;;;5049843;28;20453;-46
2021/09/24 02:21:18;;;;;;;9.82;7.43;;;;;;;;;;5051511;28;20041;-45
2021/09/24 02:23:45;;;;;;;10.98;8.13;;;;;;;;;;5050612;28;20060;-45
2021/09/24 02:26:12;;;;;;;10.77;7.60;;;;;;;;;;5031967;28;20630;-46
2021/09/24 02:28:40;;;;;;;10.40;7.63;;;;;;;;;;5030291;28;20111;-45
2021/09/24 02:31:09;;;;;;;9.57;7.57;;;;;;;;;;5030202;28;20053;-48
2021/09/24 02:33:36;;;;;;;10.23;7.88;;;;;;;;;;5030770;28;20045;-45
2021/09/24 02:36:04;;;;;;;9.50;7.38;;;;;;;;;;5030887;28;20037;-45
2021/09/24 02:38:31;;;;;;;9.18;7.18;;;;;;;;;;5031344;28;20122;-46
2021/09/24 02:40:59;;;;;;;10.05;7.45;;;;;;;;;;5031274;28;20042;-45
2021/09/24 02:43:26;;;;;;;11.10;7.65;;;;;;;;;;5030494;28;20044;-45
2021/09/24 02:45:53;;;;;;;10.73;7.45;;;;;;;;;;5031036;28;20041;-45
2021/09/24 02:48:20;;;;;;;8.63;7.05;;;;;;;;;;5031268;28;20521;-45
2021/09/24 02:50:47;;;;;;;10.10;7.72;;;;;;;;;;5041393;28;20044;-45
2021/09/24 02:53:14;;;;;;;10.13;7.47;;;;;;;;;;5054737;28;20045;-46
2021/09/24 02:55:40;;;;;;;11.95;7.50;;;;;;;;;;5030945;28;20442;-44
2021/09/24 02:58:07;;;;;;;9.90;7.60;;;;;;;;;;5029859;28;20053;-45
2021/09/24 03:00:34;;;;;;;9.85;7.82;;;;;;;;;;5030955;28;20494;-45
2021/09/24 03:03:01;;;;;;;10.77;8.48;;;;;;;;;;5031096;28;20114;-46
2021/09/24 03:05:28;;;;;;;11.25;8.35;;;;;;;;;;5030651;28;20162;-47
2021/09/24 03:07:55;;;;;;;9.90;7.40;;;;;;;;;;5030915;28;20057;-50
2021/09/24 03:10:22;;;;;;;10.27;7.53;;;;;;;;;;5031021;28;20056;-49
2021/09/24 03:12:49;;;;;;;16.10;7.15;;;;;;;;;;5029910;28;20046;-45
2021/09/24 03:15:16;;;;;;;10.50;7.85;;;;;;;;;;5030077;28;20402;-46
2021/09/24 03:17:43;;;;;;;12.32;8.10;;;;;;;;;;5046031;28;20037;-47
2021/09/24 03:20:10;;;;;;;12.82;7.78;;;;;;;;;;5050905;28;20454;-46
2021/09/24 03:22:37;;;;;;;11.52;8.20;;;;;;;;;;5050953;28;20048;-50
2021/09/24 03:25:05;;;;;;;12.35;7.93;;;;;;;;;;5045697;28;20041;-50
2021/09/24 03:27:33;;;;;;;11.07;7.28;;;;;;;;;;5030813;28;20503;-49
2021/09/24 03:30:00;;;;;;;11.50;7.90;;;;;;;;;;5030826;28;20045;-47
2021/09/24 03:32:27;;;;;;;10.13;7.68;;;;;;;;;;5032562;28;20053;-45
2021/09/24 03:34:54;;;;;;;10.52;8.27;;;;;;;;;;5032492;28;20103;-46
2021/09/24 03:37:20;;;;;;;12.10;8.10;;;;;;;;;;5034364;28;20044;-46
2021/09/24 03:39:47;;;;;;;11.68;8.23;;;;;;;;;;5032959;28;20203;-45
2021/09/24 03:42:14;;;;;;;11.48;8.10;;;;;;;;;;5034159;28;20132;-46
2021/09/24 03:44:41;;;;;;;9.23;7.85;;;;;;;;;;5033546;28;20499;-47
2021/09/24 03:47:08;;;;;;;9.82;7.50;;;;;;;;;;5016086;28;20129;-46
2021/09/24 03:49:35;;;;;;;10.43;8.02;;;;;;;;;;5034105;28;20037;-45
2021/09/24 03:52:03;;;;;;;10.60;8.00;;;;;;;;;;5034207;28;20072;-46
2021/09/24 03:54:30;;;;;;;9.90;7.45;;;;;;;;;;5033113;28;20045;-46
2021/09/24 03:56:58;;;;;;;10.10;7.93;;;;;;;;;;5032701;28;20045;-46
2021/09/24 03:59:25;;;;;;;10.70;7.43;;;;;;;;;;5032577;28;20037;-45
2021/09/24 04:01:52;;;;;;;10.52;7.75;;;;;;;;;;5033933;28;20826;-46
2021/09/24 04:04:19;;;;;;;10.23;7.78;;;;;;;;;;5033324;28;20037;-45
2021/09/24 04:06:46;;;;;;;10.63;7.68;;;;;;;;;;5033455;28;20060;-46
2021/09/24 04:09:13;;;;;;;11.88;8.07;;;;;;;;;;5033636;28;20077;-45
2021/09/24 04:11:40;;;;;;;11.85;7.82;;;;;;;;;;5033830;28;20045;-45
2021/09/24 04:14:07;;;;;;;11.70;9.07;;;;;;;;;;5032856;28;20072;-49
2021/09/24 04:16:34;;;;;;;12.50;8.20;;;;;;;;;;5038909;28;20043;-44
2021/09/24 04:19:01;;;;;;;10.15;8.00;;;;;;;;;;5053290;28;20044;-48
2021/09/24 04:21:27;;;;;;;11.15;8.00;;;;;;;;;;5053379;28;20486;-45
2021/09/24 04:23:54;;;;;;;11.48;7.80;;;;;;;;;;5052651;28;20048;-48
2021/09/24 04:26:21;;;;;;;11.02;7.30;;;;;;;;;;5043061;28;20076;-49
2021/09/24 04:28:48;;;;;;;11.32;7.60;;;;;;;;;;5033086;28;20716;-46
2021/09/24 04:31:16;;;;;;;11.35;7.72;;;;;;;;;;5033283;28;20045;-49
2021/09/24 04:33:43;;;;;;;13.88;8.38;;;;;;;;;;5032112;28;20447;-47
2021/09/24 04:36:09;;;;;;;12.90;8.13;;;;;;;;;;5033085;28;20391;-50
2021/09/24 04:38:36;;;;;;;12.23;8.30;;;;;;;;;;5023637;28;20076;-48
2021/09/24 04:41:03;;;;;;;10.65;7.82;;;;;;;;;;5033011;28;20100;-46
2021/09/24 04:43:30;;;;;;;11.90;7.45;;;;;;;;;;5032291;28;20053;-47
2021/09/24 04:45:57;;;;;;;11.13;7.47;;;;;;;;;;5032907;28;20046;-44
2021/09/24 04:48:24;;;;;;;15.13;8.65;;;;;;;;;;5033005;28;20073;-46
2021/09/24 04:50:50;;;;;;;12.30;7.60;;;;;;;;;;5031642;28;20048;-45
2021/09/24 04:53:17;;;;;;;11.50;7.72;;;;;;;;;;5032391;28;20049;-47
2021/09/24 04:55:44;;;;;;;13.52;7.80;;;;;;;;;;5032457;28;20473;-47
2021/09/24 04:58:11;;;;;;;12.10;8.05;;;;;;;;;;5032875;28;20069;-47
2021/09/24 05:00:38;;;;;;;10.23;7.85;;;;;;;;;;5031434;28;20053;-44
2021/09/24 05:03:04;;;;;;;9.75;7.80;;;;;;;;;;5032288;28;20042;-47
2021/09/24 05:05:31;;;;;;;10.90;7.40;;;;;;;;;;5032841;28;20458;-45
2021/09/24 05:07:58;;;;;;;10.65;7.85;;;;;;;;;;5031055;28;20103;-44
2021/09/24 05:10:25;;;;;;;11.77;7.40;;;;;;;;;;5031252;28;20140;-45
2021/09/24 05:12:52;;;;;;;10.45;7.60;;;;;;;;;;5032895;28;20565;-45
2021/09/24 05:15:18;;;;;;;12.68;8.50;;;;;;;;;;5030559;28;20125;-46
2021/09/24 05:17:45;;;;;;;12.00;8.10;;;;;;;;;;5043739;28;20041;-47
2021/09/24 05:20:12;;;;;;;12.65;8.65;;;;;;;;;;5050910;28;20045;-47
2021/09/24 05:22:39;;;;;;;10.95;7.63;;;;;;;;;;5050928;28;20112;-45
2021/09/24 05:25:06;;;;;;;12.80;8.27;;;;;;;;;;5051554;28;20041;-44
2021/09/24 05:27:33;;;;;;;12.05;8.43;;;;;;;;;;5048441;28;20103;-46
2021/09/24 05:30:00;;;;;;;9.65;7.30;;;;;;;;;;5032113;28;20057;-43
2021/09/24 05:32:27;;;;;;;10.40;7.65;;;;;;;;;;5032147;28;20502;-45
2021/09/24 05:34:54;;;;;;;11.70;8.18;;;;;;;;;;5031450;28;20072;-45
2021/09/24 05:37:21;;;;;;;11.27;8.30;;;;;;;;;;5031762;28;20129;-48
2021/09/24 05:39:48;;;;;;;10.10;8.30;;;;;;;;;;5032315;28;20049;-47
2021/09/24 05:42:15;;;;;;;9.88;7.78;;;;;;;;;;5032593;28;20046;-44
2021/09/24 05:44:42;;;;;;;11.00;7.90;;;;;;;;;;5030647;28;20077;-44
2021/09/24 05:47:09;;;;;;;10.98;8.05;;;;;;;;;;5042763;28;20077;-54
2021/09/24 05:49:36;;;;;;;10.02;7.65;;;;;;;;;;5014499;28;20072;-46
2021/09/24 05:52:02;;;;;;;11.10;8.43;;;;;;;;;;5030695;28;20152;-48
2021/09/24 05:54:29;;;;;;;11.43;7.72;;;;;;;;;;5043141;28;20452;-47
2021/09/24 05:56:56;;;;;;;11.90;8.30;;;;;;;;;;5050664;28;20065;-45
2021/09/24 05:59:23;;;;;;;14.35;8.45;;;;;;;;;;5050014;28;20144;-45
2021/09/24 06:01:50;;;;;;;10.68;8.13;;;;;;;;;;5051577;28;20037;-45
2021/09/24 06:04:19;;;;;;;14.20;8.45;;;;;;;;;;5050601;28;20045;-46
2021/09/24 06:06:46;;;;;;;11.55;8.43;;;;;;;;;;5049019;28;20533;-46
2021/09/24 06:09:14;;;;;;;15.73;9.20;;;;;;;;;;5050116;28;20443;-45
2021/09/24 06:11:41;;;;;;;13.20;8.25;;;;;;;;;;5051781;28;20080;-44
2021/09/24 06:14:08;;;;;;;12.45;8.05;;;;;;;;;;5050265;28;20064;-44
2021/09/24 06:16:37;;;;;;;13.70;7.57;;;;;;;;;;5048726;28;20144;-48
2021/09/24 06:19:05;;;;;;;11.20;8.13;;;;;;;;;;5051504;28;20045;-46
2021/09/24 06:21:34;;;;;;;15.30;8.80;;;;;;;;;;5051378;28;20044;-44
2021/09/24 06:24:01;;;;;;;11.57;8.13;;;;;;;;;;5044770;28;20380;-45
2021/09/24 06:26:27;;;;;;;12.35;8.10;;;;;;;;;;5038707;28;20041;-47
2021/09/24 06:28:54;;;;;;;23.30;8.68;;;;;;;;;;5047993;28;20083;-46
2021/09/24 06:31:21;;;;;;;13.55;8.88;;;;;;;;;;5051291;28;20098;-45
2021/09/24 06:33:50;;;;;;;11.88;8.00;;;;;;;;;;5048910;28;20625;-47
2021/09/24 06:36:18;;;;;;;13.43;8.55;;;;;;;;;;5050908;28;20421;-44
2021/09/24 06:38:45;;;;;;;10.32;7.75;;;;;;;;;;5045766;28;20064;-46
2021/09/24 06:41:14;;;;;;;12.48;8.18;;;;;;;;;;5040099;28;20532;-45
2021/09/24 06:43:41;;;;;;;12.77;8.20;;;;;;;;;;5049090;28;20099;-48
2021/09/24 06:46:08;;;;;;;10.05;8.13;;;;;;;;;;5050338;28;20410;-45
2021/09/24 06:48:35;;;;;;;12.13;7.57;;;;;;;;;;5048109;28;20068;-44
2021/09/24 06:51:03;;;;;;;9.57;7.53;;;;;;;;;;5050605;28;20457;-44
2021/09/24 06:53:30;;;;;;;14.52;8.10;;;;;;;;;;5050047;28;20402;-46
2021/09/24 06:55:57;;;;;;;10.77;7.32;;;;;;;;;;5050911;28;20041;-46
2021/09/24 06:58:24;;;;;;;14.02;7.60;;;;;;;;;;5029904;28;20080;-45
2021/09/24 07:00:51;;;;;;;10.68;7.35;;;;;;;;;;5048175;28;20072;-48
2021/09/24 07:03:18;;;;;;;9.40;7.07;;;;;;;;;;5050433;28;20045;-47
2021/09/24 07:05:45;;;;;;;10.23;7.57;;;;;;;;;;5051348;28;20462;-46
2021/09/24 07:08:12;;;;;;;8.75;7.07;;;;;;;;;;5053661;28;20426;-46
2021/09/24 07:10:39;;;;;;;9.35;6.88;;;;;;;;;;5051723;28;20080;-44
2021/09/24 07:13:06;;;;;;;11.07;6.80;;;;;;;;;;5054387;28;20124;-47
2021/09/24 07:15:32;;;;;;;12.85;6.25;;;;;;;;;;5054271;28;20045;-45
2021/09/24 07:17:59;;;;;;;11.07;6.78;;;;;;;;;;5053594;28;20129;-46
2021/09/24 07:20:26;;;;;;;9.52;6.22;;;;;;;;;;5047931;28;20065;-45
2021/09/24 07:23:08;;;;;;;8.88;6.35;;;;;;;;;;5053839;28;20120;-46
2021/09/24 07:25:35;;;;;;;9.63;6.60;;;;;;;;;;5054540;28;20041;-45
2021/09/24 07:28:02;;;;;;;10.50;6.20;;;;;;;;;;5037142;28;20455;-44
2021/09/24 07:30:29;;;;;;;8.57;6.47;;;;;;;;;;5034115;28;20041;-46
2021/09/24 07:32:55;;;;;;;7.20;5.75;;;;;;;;;;5035785;28;20049;-46
2021/09/24 07:35:22;;;;;;;8.77;6.13;;;;;;;;;;5052062;28;20064;-47
2021/09/24 07:37:49;;;;;;;11.88;6.32;;;;;;;;;;5053630;28;20071;-45
2021/09/24 07:40:16;;;;;;;8.65;5.97;;;;;;;;;;5053783;28;20445;-46
2021/09/24 07:42:43;;;;;;;8.40;5.88;;;;;;;;;;5043870;28;20454;-45
2021/09/24 07:45:10;;;;;;;9.05;5.93;;;;;;;;;;5053215;28;20037;-45
2021/09/24 07:47:37;;;;;;;8.60;5.80;;;;;;;;;;5053331;28;20099;-46
2021/09/24 07:50:05;;;;;;;10.25;6.13;;;;;;;;;;5050852;28;20481;-48
2021/09/24 07:52:32;;;;;;;37.53;8.55;;;;;;;;;;5038286;28;20482;-45
2021/09/24 07:54:58;;;;;;;16.25;6.43;;;;;;;;;;5053453;28;20045;-49
2021/09/24 07:57:25;;;;;;;8.30;5.40;;;;;;;;;;5064463;22;20059;-47
2021/09/24 07:59:52;;;;;;;8.38;5.35;;;;;;;;;;5036408;28;20453;-50
2021/09/24 08:02:19;;;;;;;8.50;5.57;;;;;;;;;;5033951;28;20124;-49
2021/09/24 08:04:47;;;;;;;7.57;5.47;;;;;;;;;;5052736;28;20041;-51
2021/09/24 08:07:14;;;;;;;7.63;5.78;;;;;;;;;;5054071;28;20052;-48
2021/09/24 08:09:41;;;;;;;7.88;5.55;;;;;;;;;;5040507;28;20135;-45
2021/09/24 08:12:07;;;;;;;12.25;7.15;;;;;;;;;;5053635;28;20136;-48
2021/09/24 08:14:35;;;;;;;9.77;6.10;;;;;;;;;;5051622;28;20377;-46
2021/09/24 08:17:02;;;;;;;11.93;5.70;;;;;;;;;;5050203;28;20513;-49
2021/09/24 08:19:29;;;;;;;10.13;6.20;;;;;;;;;;5033480;28;20064;-47
2021/09/24 08:21:56;;;;;;;8.02;5.75;;;;;;;;;;5033560;28;20072;-47
2021/09/24 08:24:22;;;;;;;7.15;5.38;;;;;;;;;;5032820;28;20145;-46
2021/09/24 08:26:49;;;;;;;9.25;5.65;;;;;;;;;;5033285;28;20136;-46
2021/09/24 08:29:16;;;;;;;12.05;6.07;;;;;;;;;;5032985;28;20049;-49
2021/09/24 08:31:43;;;;;;;11.73;6.55;;;;;;;;;;5033387;28;20042;-47
2021/09/24 08:34:10;;;;;;;8.23;5.30;;;;;;;;;;5032496;28;20132;-49
2021/09/24 08:36:37;;;;;;;6.35;5.18;;;;;;;;;;5033248;28;20128;-50
2021/09/24 08:39:04;;;;;;;10.43;5.45;;;;;;;;;;5033189;28;20040;-46
2021/09/24 08:41:32;;;;;;;7.68;4.88;;;;;;;;;;5031686;28;20103;-45
2021/09/24 08:43:58;;;;;;;7.85;4.88;;;;;;;;;;5032521;28;20124;-46
2021/09/24 08:46:26;;;;;;;8.88;5.43;;;;;;;;;;5033021;28;20056;-48
2021/09/24 08:48:53;;;;;;;8.63;5.30;;;;;;;;;;5048190;28;20156;-48
2021/09/24 08:51:20;;;;;;;8.85;4.82;;;;;;;;;;5031434;28;20140;-45
2021/09/24 08:53:47;;;;;;;6.10;4.65;;;;;;;;;;5031923;28;20037;-47
2021/09/24 08:56:14;;;;;;;8.98;5.28;;;;;;;;;;5032397;28;20068;-47
2021/09/24 08:58:41;;;;;;;6.43;4.75;;;;;;;;;;5032099;28;20080;-48
2021/09/24 09:01:08;;;;;;;8.85;5.07;;;;;;;;;;5032549;28;20037;-47
2021/09/24 09:03:42;;;;;;;7.32;5.03;;;;;;;;;;5031436;28;20041;-49
2021/09/24 09:06:11;;;;;;;6.45;4.75;;;;;;;;;;5032471;28;20042;-48
2021/09/24 09:08:37;;;;;;;9.90;5.22;;;;;;;;;;5032138;28;20079;-50
2021/09/24 09:11:07;;;;;;;6.75;4.68;;;;;;;;;;5032379;28;20045;-49
2021/09/24 09:13:38;;;;;;;6.97;5.43;;;;;;;;;;5031567;28;20033;-50
2021/09/24 09:16:06;;;;;;;7.10;5.07;;;;;;;;;;5047365;28;20474;-50
2021/09/24 09:18:34;;;;;;;6.07;5.10;;;;;;;;;;5032062;28;20124;-48
2021/09/24 09:21:02;;;;;;;7.78;4.47;;;;;;;;;;5032388;28;20124;-48
2021/09/24 09:23:30;;;;;;;8.05;4.88;;;;;;;;;;5031462;28;20092;-50
2021/09/24 09:25:58;;;;;;;8.65;5.28;;;;;;;;;;5032445;28;20042;-50
2021/09/24 09:28:25;;;;;;;8.98;4.63;;;;;;;;;;5030966;28;20451;-47
2021/09/24 09:30:52;;;;;;;6.65;4.95;;;;;;;;;;5031871;28;20045;-48
2021/09/24 09:33:20;;;;;;;8.50;5.45;;;;;;;;;;5031278;28;20060;-48
2021/09/24 09:36:00;;;;;;;7.57;4.70;;;;;;;;;;5031868;28;20446;-48
2021/09/24 09:38:29;;;;;;;9.55;4.72;;;;;;;;;;5031916;28;20055;-47
2021/09/24 09:41:04;;;;;;;8.77;4.70;;;;;;;;;;5031978;28;20598;-47
2021/09/24 09:43:31;;;;;;;8.77;4.47;;;;;;;;;;5031399;28;20160;-51
2021/09/24 09:45:59;;;;;;;9.20;4.97;;;;;;;;;;5031484;28;20042;-50
2021/09/24 09:48:26;;;;;;;9.32;4.65;;;;;;;;;;5031865;28;20354;-48
2021/09/24 09:50:53;;;;;;;7.07;4.38;;;;;;;;;;5031914;28;20041;-49
2021/09/24 09:53:20;;;;;;;6.55;4.50;;;;;;;;;;5030977;28;20129;-51
2021/09/24 09:55:49;;;;;;;6.32;4.68;;;;;;;;;;5031309;28;20073;-46
2021/09/24 09:58:16;;;;;;;5.68;4.18;;;;;;;;;;5031313;28;20105;-51
2021/09/24 10:00:59;;;;;;;7.97;5.15;;;;;;;;;;5051583;28;20068;-48
2021/09/24 10:03:37;;;;;;;9.05;4.32;;;;;;;;;;5051084;28;20048;-47
2021/09/24 10:06:16;;;;;;;6.28;4.40;;;;;;;;;;5052043;28;20068;-48
2021/09/24 10:08:43;;;;;;;6.50;4.50;;;;;;;;;;5035156;28;20410;-48
2021/09/24 10:11:13;;;;;;;8.48;4.32;;;;;;;;;;5031431;28;20046;-49
2021/09/24 10:13:57;;;;;;;6.32;4.25;;;;;;;;;;5029529;28;20073;-48
2021/09/24 10:16:32;;;;;;;5.35;3.83;;;;;;;;;;5046426;28;20069;-49
2021/09/24 10:18:59;;;;;;;5.60;3.85;;;;;;;;;;5031368;28;20569;-48
2021/09/24 10:21:35;;;;;;;5.72;4.00;;;;;;;;;;5031335;28;20132;-48
2021/09/24 10:24:03;;;;;;;8.38;4.18;;;;;;;;;;5030574;28;20075;-50
2021/09/24 10:26:32;;;;;;;11.52;4.63;;;;;;;;;;5031003;28;20077;-47
2021/09/24 10:29:05;;;;;;;7.90;4.20;;;;;;;;;;5031117;28;20045;-47
2021/09/24 10:31:37;;;;;;;5.57;4.30;;;;;;;;;;5030198;28;20042;-50
2021/09/24 10:34:05;;;;;;;5.85;4.22;;;;;;;;;;5030858;28;20091;-49
2021/09/24 10:36:53;;;;;;;7.05;4.63;;;;;;;;;;5030067;28;20050;-46
2021/09/24 10:39:26;;;;;;;7.60;4.57;;;;;;;;;;5031596;28;20395;-49
2021/09/24 10:41:53;;;;;;;;;;;;;;;;;;5035868;28;20053;-52
2021/09/24 10:44:29;;;;;;;4.88;4.00;;;;;;;;;;5034584;28;20298;-49
2021/09/24 10:46:56;;;;;;;10.45;5.10;;;;;;;;;;5035428;28;20046;-48
2021/09/24 10:49:26;;;;;;;7.60;4.20;;;;;;;;;;5054867;28;20280;-49
2021/09/24 10:52:05;;;;;;;8.63;4.40;;;;;;;;;;5055240;28;20069;-49
2021/09/24 10:54:32;;;;;;;6.18;4.50;;;;;;;;;;5054344;28;20098;-46
2021/09/24 10:57:00;;;;;;;6.05;4.72;;;;;;;;;;5036254;28;20069;-48
2021/09/24 10:59:33;;;;;;;7.53;4.78;;;;;;;;;;5034962;28;20103;-50
2021/09/24 11:02:20;;;;;;;7.53;4.45;;;;;;;;;;5034933;28;20045;-51
2021/09/24 11:04:50;;;;;;;6.25;4.40;;;;;;;;;;5034107;28;20507;-48
2021/09/24 11:07:27;;;;;;;5.45;4.28;;;;;;;;;;5034512;28;20047;-49
2021/09/24 11:09:54;;;;;;;7.75;4.10;;;;;;;;;;5034836;28;20076;-48
2021/09/24 11:12:21;;;;;;;7.50;4.50;;;;;;;;;;5034703;28;20087;-48
2021/09/24 11:15:03;;;;;;;4.95;3.97;;;;;;;;;;5049109;28;20119;-47
2021/09/24 11:17:39;;;;;;;5.43;4.23;;;;;;;;;;5034212;28;20052;-49
2021/09/24 11:20:24;;;;;;;5.45;4.18;;;;;;;;;;5034544;28;20084;-48
2021/09/24 11:22:51;;;;;;;7.22;4.82;;;;;;;;;;5034623;28;20474;-49
2021/09/24 11:25:18;;;;;;;7.80;4.55;;;;;;;;;;5033647;28;20158;-51
2021/09/24 11:27:45;;;;;;;6.05;4.00;;;;;;;;;;5034237;28;20583;-47
2021/09/24 11:30:14;;;;;;;8.38;4.15;;;;;;;;;;5034052;28;20045;-48
2021/09/24 11:32:42;;;;;;;5.53;4.32;;;;;;;;;;5034252;28;20141;-50
2021/09/24 11:35:10;;;;;;;6.03;4.65;;;;;;;;;;5033590;28;20049;-48
2021/09/24 11:37:38;;;;;;;4.97;4.03;;;;;;;;;;5033914;28;20065;-48
2021/09/24 11:40:05;;;;;;;5.90;4.40;;;;;;;;;;5034070;28;20072;-49
2021/09/24 11:42:36;;;;;;;8.57;4.63;;;;;;;;;;5034166;28;20447;-49
2021/09/24 11:45:05;;;;;;;7.25;4.70;;;;;;;;;;5015867;28;20072;-49
2021/09/24 11:47:33;;;;;;;7.38;5.38;;;;;;;;;;5049483;28;20128;-45
2021/09/24 11:50:04;;;;;;;5.68;4.07;;;;;;;;;;5034317;28;20049;-47
2021/09/24 11:52:39;;;;;;;4.85;4.28;;;;;;;;;;5031851;28;20053;-53
2021/09/24 11:55:22;;;;;;;4.55;3.80;;;;;;;;;;5031989;28;20140;-50
2021/09/24 11:58:04;;;;;;;8.32;4.03;;;;;;;;;;5033806;28;20037;-48
2021/09/24 12:00:47;;;;;;;5.47;4.40;;;;;;;;;;5033860;28;20045;-50
2021/09/24 12:03:22;;;;;;;5.22;3.90;;;;;;;;;;5033381;28;20041;-47
2021/09/24 12:05:59;;;;;;;4.90;4.20;;;;;;;;;;5033988;28;20045;-48
2021/09/24 12:08:30;;;;;;;6.20;4.22;;;;;;;;;;5034056;28;20057;-46
2021/09/24 12:10:58;;;;;;;4.65;3.90;;;;;;;;;;5034032;28;20056;-48
2021/09/24 12:13:34;;;;;;;6.57;4.40;;;;;;;;;;5031885;28;20153;-48
2021/09/24 12:16:01;;;;;;;7.32;4.20;;;;;;;;;;5032225;28;20092;-49
2021/09/24 12:18:48;;;;;;;4.82;3.97;;;;;;;;;;5033585;28;20053;-48
2021/09/24 12:21:17;;;;;;;8.55;3.97;;;;;;;;;;5034135;28;20037;-48
2021/09/24 12:23:44;;;;;;;5.22;3.75;;;;;;;;;;5032707;28;20049;-48
2021/09/24 12:26:12;;;;;;;6.00;4.20;;;;;;;;;;5019261;28;20080;-50
2021/09/24 12:28:53;;;;;;;6.47;4.15;;;;;;;;;;5033194;28;20125;-48
2021/09/24 12:31:32;;;;;;;6.28;3.50;;;;;;;;;;5032193;28;20072;-49
2021/09/24 12:33:59;;;;;;;4.47;4.00;;;;;;;;;;5032648;28;20132;-52
2021/09/24 12:36:26;;;;;;;4.95;4.20;;;;;;;;;;5033221;28;20077;-49
2021/09/24 12:39:09;;;;;;;6.72;4.15;;;;;;;;;;5033029;28;20037;-48
2021/09/24 12:41:37;;;;;;;4.82;4.13;;;;;;;;;;5048461;28;20553;-49
2021/09/24 12:44:03;;;;;;;4.63;3.78;;;;;;;;;;5032614;28;20458;-50
2021/09/24 12:46:37;;;;;;;5.82;4.38;;;;;;;;;;5032716;28;20087;-50
2021/09/24 12:49:04;;;;;;;7.05;4.50;;;;;;;;;;5033111;28;20506;-49
2021/09/24 12:51:31;;;;;;;4.95;3.88;;;;;;;;;;5033175;28;20136;-47
2021/09/24 12:53:59;;;;;;;4.55;3.78;;;;;;;;;;5032206;28;20069;-46
2021/09/24 12:56:25;;;;;;;4.88;4.30;;;;;;;;;;5032525;28;20279;-48
2021/09/24 12:58:57;;;;;;;5.75;4.05;;;;;;;;;;5047922;28;20037;-54
2021/09/24 13:01:26;;;;;;;6.10;3.97;;;;;;;;;;5015347;28;20052;-46
2021/09/24 13:03:54;;;;;;;7.55;4.60;;;;;;;;;;5031976;28;20042;-47
2021/09/24 13:06:24;;;;;;;7.57;4.20;;;;;;;;;;5032520;28;20091;-49
2021/09/24 13:08:51;;;;;;;6.78;4.00;;;;;;;;;;5032342;28;20525;-48
2021/09/24 13:11:23;;;;;;;6.95;3.80;;;;;;;;;;5031424;28;20045;-50
2021/09/24 13:13:54;;;;;;;4.93;3.80;;;;;;;;;;5031967;28;20489;-48
2021/09/24 13:16:21;;;;;;;6.20;3.88;;;;;;;;;;5032484;28;20160;-48
2021/09/24 13:18:49;;;;;;;4.70;3.35;;;;;;;;;;5032508;28;20048;-47
2021/09/24 13:21:18;;;;;;;5.90;3.60;;;;;;;;;;5032608;28;20465;-47
2021/09/24 13:23:48;;;;;;;6.72;3.70;;;;;;;;;;5031507;28;20060;-48
2021/09/24 13:26:16;;;;;;;4.90;3.65;;;;;;;;;;5032132;28;20128;-46
2021/09/24 13:28:43;;;;;;;4.88;3.60;;;;;;;;;;5032083;28;20128;-50
2021/09/24 13:31:11;;;;;;;4.03;3.50;;;;;;;;;;5047715;28;20052;-52
2021/09/24 13:33:38;;;;;;;5.70;4.03;;;;;;;;;;5031372;28;20054;-52
2021/09/24 13:36:05;;;;;;;4.20;3.33;;;;;;;;;;5031351;28;20368;-47
2021/09/24 13:38:32;;;;;;;4.43;3.50;;;;;;;;;;5031716;28;20483;-48
2021/09/24 13:40:59;;;;;;;6.32;3.15;;;;;;;;;;5032418;28;20507;-50
2021/09/24 13:43:25;;;;;;;4.72;3.40;;;;;;;;;;5031518;28;20124;-49
2021/09/24 13:45:52;;;;;;;4.80;3.80;;;;;;;;;;5032470;28;20093;-49
2021/09/24 13:48:20;;;;;;;5.38;4.00;;;;;;;;;;5030882;28;20120;-50
2021/09/24 13:50:47;;;;;;;5.95;3.60;;;;;;;;;;5032003;28;20139;-49
2021/09/24 13:53:15;;;;;;;6.32;3.72;;;;;;;;;;5031183;28;20053;-49
2021/09/24 13:55:42;;;;;;;4.18;3.58;;;;;;;;;;5031978;28;20053;-50
2021/09/24 13:58:09;;;;;;;8.73;3.65;;;;;;;;;;5067642;22;20057;-46
2021/09/24 14:00:36;;;;;;;5.82;3.72;;;;;;;;;;5031014;28;20099;-47
2021/09/24 14:03:03;;;;;;;5.25;3.33;;;;;;;;;;5030801;28;20375;-46
2021/09/24 14:05:30;;;;;;;7.78;3.55;;;;;;;;;;5030840;28;20041;-50
2021/09/24 14:07:57;;;;;;;4.53;3.70;;;;;;;;;;5030572;28;20140;-48
2021/09/24 14:10:24;;;;;;;5.97;3.80;;;;;;;;;;5030988;28;20128;-48
2021/09/24 14:12:53;;;;;;;5.35;3.67;;;;;;;;;;5030692;28;20073;-48
2021/09/24 14:15:20;;;;;;;6.40;3.90;;;;;;;;;;5028586;28;20123;-47
2021/09/24 14:17:47;;;;;;;4.55;3.35;;;;;;;;;;5030741;28;20080;-46
2021/09/24 14:20:15;;;;;;;6.38;3.70;;;;;;;;;;5030774;28;20042;-47
2021/09/24 14:22:42;;;;;;;5.35;3.85;;;;;;;;;;5030947;28;20141;-46
2021/09/24 14:25:09;;;;;;;6.60;3.75;;;;;;;;;;5029923;28;20529;-46
2021/09/24 14:27:36;;;;;;;4.50;3.80;;;;;;;;;;5030719;28;20136;-48
2021/09/24 14:30:04;;;;;;;5.10;3.97;;;;;;;;;;5029202;28;20050;-46
2021/09/24 14:32:31;;;;;;;8.70;3.90;;;;;;;;;;5033741;28;20103;-47
2021/09/24 14:34:58;;;;;;;6.18;3.63;;;;;;;;;;5032633;28;20073;-46
2021/09/24 14:37:25;;;;;;;5.10;4.25;;;;;;;;;;5031196;28;20045;-46
2021/09/24 14:39:52;;;;;;;5.20;4.18;;;;;;;;;;5030978;28;20048;-46
2021/09/24 14:42:19;;;;;;;5.10;3.78;;;;;;;;;;5030792;28;20038;-47
2021/09/24 14:44:46;;;;;;;6.00;3.67;;;;;;;;;;5030078;28;20087;-45